createdAt,value
2018-01-27T00:00:14.409Z,5.81
2018-01-27T00:01:14.331Z,5.80
2018-01-27T00:02:14.249Z,5.81
2018-01-27T00:03:14.169Z,5.80
2018-01-27T00:04:14.090Z,5.81
2018-01-27T00:05:14.010Z,5.83
2018-01-27T00:06:13.930Z,5.80
2018-01-27T00:07:13.851Z,5.85
2018-01-27T00:08:13.771Z,5.78
2018-01-27T00:09:13.718Z,5.89
2018-01-27T00:10:13.612Z,5.88
2018-01-27T00:11:13.532Z,5.90
2018-01-27T00:12:13.453Z,5.93
2018-01-27T00:13:13.373Z,5.93
2018-01-27T00:14:13.294Z,5.92
2018-01-27T00:15:13.215Z,5.97
2018-01-27T00:16:13.136Z,5.96
2018-01-27T00:17:13.055Z,5.97
2018-01-27T00:18:12.976Z,5.92
2018-01-27T00:19:12.895Z,5.97
2018-01-27T00:20:12.817Z,5.99
2018-01-27T00:21:12.737Z,6.03
2018-01-27T00:22:12.658Z,6.11
2018-01-27T00:23:12.578Z,6.04
2018-01-27T00:24:12.501Z,6.06
2018-01-27T00:25:12.418Z,6.06
2018-01-27T00:26:12.339Z,6.08
2018-01-27T00:27:12.260Z,6.08
2018-01-27T00:28:12.181Z,6.07
2018-01-27T00:29:12.101Z,6.04
2018-01-27T00:30:12.022Z,6.10
2018-01-27T00:31:11.943Z,6.11
2018-01-27T00:32:11.864Z,5.96
2018-01-27T00:33:11.782Z,5.97
2018-01-27T00:34:11.704Z,5.95
2018-01-27T00:35:11.675Z,5.97
2018-01-27T00:36:11.546Z,5.99
2018-01-27T00:37:11.466Z,6.00
2018-01-27T00:38:11.387Z,5.99
2018-01-27T00:39:11.307Z,5.96
2018-01-27T00:40:11.228Z,5.99
2018-01-27T00:41:11.150Z,6.00
2018-01-27T00:42:11.068Z,5.93
2018-01-27T00:43:10.989Z,5.97
2018-01-27T00:44:10.910Z,6.04
2018-01-27T00:45:10.830Z,5.97
2018-01-27T00:46:10.750Z,5.97
2018-01-27T00:47:10.671Z,6.00
2018-01-27T00:48:10.593Z,5.97
2018-01-27T00:49:10.512Z,6.08
2018-01-27T00:50:10.432Z,6.11
2018-01-27T00:51:10.353Z,6.03
2018-01-27T00:52:10.274Z,6.03
2018-01-27T00:53:10.194Z,6.06
2018-01-27T00:54:10.115Z,5.99
2018-01-27T00:55:10.036Z,6.06
2018-01-27T00:56:09.957Z,6.13
2018-01-27T00:57:09.876Z,5.97
2018-01-27T00:58:09.795Z,6.00
2018-01-27T00:59:09.718Z,5.99
2018-01-27T01:00:09.639Z,5.99
2018-01-27T01:01:09.558Z,5.97
2018-01-27T01:02:09.481Z,5.99
2018-01-27T01:03:09.400Z,5.99
2018-01-27T01:04:09.320Z,5.96
2018-01-27T01:05:09.240Z,5.99
2018-01-27T01:06:09.161Z,6.03
2018-01-27T01:07:09.093Z,5.99
2018-01-27T01:08:09.003Z,5.96
2018-01-27T01:09:08.923Z,6.00
2018-01-27T01:10:08.844Z,5.86
2018-01-27T01:11:08.765Z,5.88
2018-01-27T01:12:08.685Z,5.95
2018-01-27T01:13:08.606Z,6.00
2018-01-27T01:14:08.527Z,5.99
2018-01-27T01:15:08.446Z,6.00
2018-01-27T01:16:08.368Z,5.93
2018-01-27T01:17:08.285Z,5.95
2018-01-27T01:18:08.208Z,5.95
2018-01-27T01:19:08.133Z,5.96
2018-01-27T01:20:08.050Z,5.95
2018-01-27T01:21:07.970Z,6.00
2018-01-27T01:22:07.890Z,5.99
2018-01-27T01:23:07.811Z,6.07
2018-01-27T01:24:07.731Z,6.11
2018-01-27T01:25:07.649Z,6.07
2018-01-27T01:26:07.572Z,6.04
2018-01-27T01:27:07.499Z,5.99
2018-01-27T01:28:07.414Z,5.89
2018-01-27T01:29:07.334Z,5.89
2018-01-27T01:30:07.254Z,5.86
2018-01-27T01:31:07.175Z,5.86
2018-01-27T01:32:07.096Z,5.85
2018-01-27T01:33:07.017Z,5.80
2018-01-27T01:34:06.936Z,5.75
2018-01-27T01:35:06.857Z,5.72
2018-01-27T01:36:06.778Z,5.80
2018-01-27T01:37:06.698Z,5.74
2018-01-27T01:38:06.618Z,5.67
2018-01-27T01:39:06.539Z,5.62
2018-01-27T01:40:06.461Z,5.63
2018-01-27T01:41:06.379Z,5.56
2018-01-27T01:42:06.302Z,5.44
2018-01-27T01:43:06.220Z,5.49
2018-01-27T01:44:06.140Z,5.39
2018-01-27T01:45:06.061Z,5.39
2018-01-27T01:46:05.981Z,5.35
2018-01-27T01:47:05.901Z,5.26
2018-01-27T01:48:05.822Z,5.23
2018-01-27T01:49:05.741Z,5.31
2018-01-27T01:50:05.662Z,5.31
2018-01-27T01:51:05.582Z,5.31
2018-01-27T01:52:05.502Z,5.31
2018-01-27T01:53:05.422Z,5.34
2018-01-27T01:54:05.342Z,5.32
2018-01-27T01:55:05.263Z,5.32
2018-01-27T01:56:05.183Z,5.34
2018-01-27T01:57:05.102Z,5.31
2018-01-27T01:58:05.024Z,5.36
2018-01-27T01:59:04.943Z,5.34
2018-01-27T02:00:04.864Z,5.26
2018-01-27T02:01:04.783Z,5.26
2018-01-27T02:02:04.703Z,5.29
2018-01-27T02:03:04.623Z,5.26
2018-01-27T02:04:04.544Z,5.32
2018-01-27T02:05:04.463Z,5.35
2018-01-27T02:06:04.383Z,5.34
2018-01-27T02:07:04.303Z,5.28
2018-01-27T02:08:04.223Z,5.24
2018-01-27T02:09:04.143Z,5.32
2018-01-27T02:10:04.063Z,5.32
2018-01-27T02:11:03.983Z,5.28
2018-01-27T02:12:03.903Z,5.31
2018-01-27T02:13:03.821Z,5.35
2018-01-27T02:14:03.741Z,5.26
2018-01-27T02:15:03.662Z,5.18
2018-01-27T02:16:03.583Z,5.32
2018-01-27T02:17:03.502Z,5.21
2018-01-27T02:18:03.421Z,5.29
2018-01-27T02:19:03.343Z,5.21
2018-01-27T02:20:03.263Z,5.26
2018-01-27T02:21:03.181Z,5.28
2018-01-27T02:22:03.102Z,5.31
2018-01-27T02:23:03.023Z,5.35
2018-01-27T02:24:02.942Z,5.34
2018-01-27T02:25:02.862Z,5.32
2018-01-27T02:26:02.822Z,5.31
2018-01-27T02:27:02.702Z,5.32
2018-01-27T02:28:02.622Z,5.31
2018-01-27T02:29:02.541Z,5.31
2018-01-27T02:30:02.461Z,5.34
2018-01-27T02:31:02.382Z,5.39
2018-01-27T02:32:02.302Z,5.41
2018-01-27T02:33:02.221Z,5.34
2018-01-27T02:34:02.142Z,5.42
2018-01-27T02:35:02.062Z,5.52
2018-01-27T02:36:01.981Z,5.53
2018-01-27T02:37:01.901Z,5.53
2018-01-27T02:38:01.821Z,5.54
2018-01-27T02:39:01.741Z,5.60
2018-01-27T02:40:01.661Z,5.57
2018-01-27T02:41:01.580Z,5.65
2018-01-27T02:42:01.501Z,5.67
2018-01-27T02:43:01.422Z,5.62
2018-01-27T02:44:01.342Z,5.75
2018-01-27T02:45:01.262Z,5.75
2018-01-27T02:46:01.181Z,5.60
2018-01-27T02:47:01.108Z,5.63
2018-01-27T02:48:01.023Z,5.74
2018-01-27T02:49:00.943Z,5.72
2018-01-27T02:50:00.862Z,5.75
2018-01-27T02:51:00.783Z,5.70
2018-01-27T02:52:00.703Z,5.72
2018-01-27T02:53:00.622Z,5.67
2018-01-27T02:54:00.543Z,5.68
2018-01-27T02:55:00.464Z,5.77
2018-01-27T02:56:00.383Z,5.80
2018-01-27T02:57:00.303Z,5.85
2018-01-27T02:58:00.223Z,5.90
2018-01-27T02:59:00.144Z,5.89
2018-01-27T03:00:00.069Z,5.97
2018-01-27T03:00:59.984Z,5.90
2018-01-27T03:01:59.904Z,6.00
2018-01-27T03:02:59.824Z,6.04
2018-01-27T03:03:59.748Z,6.08
2018-01-27T03:04:59.665Z,6.06
2018-01-27T03:05:59.585Z,6.13
2018-01-27T03:06:59.506Z,6.06
2018-01-27T03:07:59.426Z,6.08
2018-01-27T03:08:59.346Z,6.07
2018-01-27T03:09:59.267Z,5.99
2018-01-27T03:10:59.189Z,5.96
2018-01-27T03:11:59.109Z,5.95
2018-01-27T03:12:59.029Z,6.03
2018-01-27T03:13:58.950Z,5.97
2018-01-27T03:14:58.870Z,6.07
2018-01-27T03:15:58.790Z,6.07
2018-01-27T03:16:58.711Z,6.11
2018-01-27T03:17:58.632Z,6.13
2018-01-27T03:18:58.553Z,5.99
2018-01-27T03:19:58.474Z,6.00
2018-01-27T03:20:58.393Z,5.97
2018-01-27T03:21:58.314Z,6.00
2018-01-27T03:22:58.234Z,5.99
2018-01-27T03:23:58.155Z,6.06
2018-01-27T03:24:58.075Z,6.10
2018-01-27T03:25:57.996Z,6.11
2018-01-27T03:26:57.917Z,6.03
2018-01-27T03:27:57.838Z,6.03
2018-01-27T03:28:57.758Z,6.04
2018-01-27T03:29:57.828Z,6.04
2018-01-27T03:30:57.600Z,6.10
2018-01-27T03:31:57.522Z,6.13
2018-01-27T03:32:57.440Z,6.08
2018-01-27T03:33:57.361Z,6.08
2018-01-27T03:34:57.282Z,6.13
2018-01-27T03:35:57.202Z,6.03
2018-01-27T03:36:57.123Z,5.97
2018-01-27T03:37:57.043Z,6.07
2018-01-27T03:38:56.964Z,6.08
2018-01-27T03:39:56.885Z,5.92
2018-01-27T03:40:56.806Z,5.93
2018-01-27T03:41:56.726Z,5.96
2018-01-27T03:42:56.646Z,6.06
2018-01-27T03:43:56.566Z,6.06
2018-01-27T03:44:56.489Z,6.08
2018-01-27T03:45:56.413Z,6.06
2018-01-27T03:46:56.329Z,6.08
2018-01-27T03:47:56.249Z,6.11
2018-01-27T03:48:56.169Z,6.08
2018-01-27T03:49:56.093Z,6.08
2018-01-27T03:50:56.011Z,6.15
2018-01-27T03:51:55.932Z,6.10
2018-01-27T03:52:55.850Z,6.13
2018-01-27T03:53:55.772Z,6.13
2018-01-27T03:54:55.693Z,6.08
2018-01-27T03:55:55.614Z,6.11
2018-01-27T03:56:55.534Z,5.97
2018-01-27T03:57:55.454Z,6.07
2018-01-27T03:58:55.376Z,6.03
2018-01-27T03:59:55.296Z,5.97
2018-01-27T04:00:55.216Z,6.03
2018-01-27T04:01:55.137Z,6.03
2018-01-27T04:02:55.057Z,6.00
2018-01-27T04:03:54.981Z,6.10
2018-01-27T04:04:54.900Z,6.15
2018-01-27T04:05:54.821Z,6.10
2018-01-27T04:06:54.740Z,6.04
2018-01-27T04:07:54.660Z,6.00
2018-01-27T04:08:54.581Z,5.95
2018-01-27T04:09:54.502Z,5.96
2018-01-27T04:10:54.422Z,6.07
2018-01-27T04:11:54.343Z,6.04
2018-01-27T04:12:54.262Z,6.03
2018-01-27T04:13:54.183Z,5.96
2018-01-27T04:14:54.105Z,5.99
2018-01-27T04:15:54.026Z,5.97
2018-01-27T04:16:53.945Z,5.99
2018-01-27T04:17:53.866Z,5.97
2018-01-27T04:18:53.786Z,5.95
2018-01-27T04:19:53.706Z,5.92
2018-01-27T04:20:53.626Z,5.89
2018-01-27T04:21:53.547Z,5.88
2018-01-27T04:22:53.468Z,5.96
2018-01-27T04:23:53.388Z,5.89
2018-01-27T04:24:53.308Z,5.97
2018-01-27T04:25:53.229Z,5.92
2018-01-27T04:26:53.150Z,6.00
2018-01-27T04:27:53.070Z,5.90
2018-01-27T04:28:52.990Z,5.93
2018-01-27T04:29:52.910Z,5.89
2018-01-27T04:30:52.831Z,5.92
2018-01-27T04:31:52.751Z,5.92
2018-01-27T04:32:52.672Z,5.97
2018-01-27T04:33:52.592Z,5.90
2018-01-27T04:34:52.513Z,5.85
2018-01-27T04:35:52.432Z,5.92
2018-01-27T04:36:52.353Z,5.92
2018-01-27T04:37:52.276Z,5.95
2018-01-27T04:38:52.195Z,6.04
2018-01-27T04:39:52.113Z,5.89
2018-01-27T04:40:52.034Z,5.89
2018-01-27T04:41:51.954Z,5.88
2018-01-27T04:42:51.875Z,5.85
2018-01-27T04:43:51.795Z,5.88
2018-01-27T04:44:51.714Z,5.77
2018-01-27T04:45:51.635Z,5.78
2018-01-27T04:46:51.556Z,5.77
2018-01-27T04:47:51.477Z,5.74
2018-01-27T04:48:51.396Z,5.74
2018-01-27T04:49:51.316Z,5.67
2018-01-27T04:50:51.236Z,5.71
2018-01-27T04:51:51.157Z,5.78
2018-01-27T04:52:51.076Z,5.80
2018-01-27T04:53:50.998Z,5.89
2018-01-27T04:54:50.918Z,5.90
2018-01-27T04:55:50.838Z,5.86
2018-01-27T04:56:50.758Z,5.90
2018-01-27T04:57:50.679Z,5.89
2018-01-27T04:58:50.599Z,5.85
2018-01-27T04:59:50.520Z,5.81
2018-01-27T05:00:50.439Z,5.78
2018-01-27T05:01:50.360Z,5.85
2018-01-27T05:02:50.285Z,5.78
2018-01-27T05:03:50.202Z,5.88
2018-01-27T05:04:50.120Z,5.95
2018-01-27T05:05:50.040Z,5.75
2018-01-27T05:06:49.962Z,5.81
2018-01-27T05:07:49.881Z,5.81
2018-01-27T05:08:49.801Z,5.81
2018-01-27T05:09:49.722Z,5.78
2018-01-27T05:10:49.643Z,5.77
2018-01-27T05:11:49.563Z,5.88
2018-01-27T05:12:49.482Z,5.92
2018-01-27T05:13:49.404Z,5.88
2018-01-27T05:14:49.324Z,5.93
2018-01-27T05:15:49.245Z,5.99
2018-01-27T05:16:49.164Z,5.93
2018-01-27T05:17:49.084Z,5.93
2018-01-27T05:18:49.006Z,5.99
2018-01-27T05:19:48.925Z,5.99
2018-01-27T05:20:48.846Z,5.93
2018-01-27T05:21:48.767Z,5.96
2018-01-27T05:22:48.686Z,5.90
2018-01-27T05:23:48.606Z,5.83
2018-01-27T05:24:48.527Z,5.85
2018-01-27T05:25:48.448Z,5.90
2018-01-27T05:26:48.369Z,5.92
2018-01-27T05:27:48.289Z,5.92
2018-01-27T05:28:48.210Z,5.90
2018-01-27T05:29:48.129Z,5.88
2018-01-27T05:30:48.051Z,5.89
2018-01-27T05:31:47.971Z,5.89
2018-01-27T05:32:47.891Z,5.89
2018-01-27T05:33:47.812Z,5.78
2018-01-27T05:34:47.733Z,5.81
2018-01-27T05:35:47.652Z,5.77
2018-01-27T05:36:47.573Z,5.93
2018-01-27T05:37:47.492Z,5.92
2018-01-27T05:38:47.413Z,5.86
2018-01-27T05:39:47.334Z,5.68
2018-01-27T05:40:47.253Z,5.72
2018-01-27T05:41:47.175Z,5.67
2018-01-27T05:42:47.095Z,5.74
2018-01-27T05:43:47.016Z,5.71
2018-01-27T05:44:46.935Z,5.62
2018-01-27T05:45:46.855Z,5.63
2018-01-27T05:46:46.777Z,5.67
2018-01-27T05:47:46.696Z,5.63
2018-01-27T05:48:46.618Z,5.75
2018-01-27T05:49:46.537Z,5.57
2018-01-27T05:50:46.457Z,5.62
2018-01-27T05:51:46.378Z,5.59
2018-01-27T05:52:46.296Z,5.57
2018-01-27T05:53:46.217Z,5.49
2018-01-27T05:54:46.137Z,5.52
2018-01-27T05:55:46.058Z,5.54
2018-01-27T05:56:45.977Z,5.53
2018-01-27T05:57:45.897Z,5.41
2018-01-27T05:58:45.817Z,5.49
2018-01-27T05:59:45.739Z,5.50
2018-01-27T06:00:45.656Z,5.53
2018-01-27T06:01:45.577Z,5.47
2018-01-27T06:02:45.498Z,5.52
2018-01-27T06:03:45.421Z,5.53
2018-01-27T06:04:45.337Z,5.52
2018-01-27T06:05:45.257Z,5.50
2018-01-27T06:06:45.177Z,5.54
2018-01-27T06:07:45.098Z,5.53
2018-01-27T06:08:45.017Z,5.49
2018-01-27T06:09:44.936Z,5.53
2018-01-27T06:10:44.855Z,5.54
2018-01-27T06:11:44.775Z,5.57
2018-01-27T06:12:44.696Z,5.59
2018-01-27T06:13:44.616Z,5.65
2018-01-27T06:14:44.535Z,5.67
2018-01-27T06:15:44.456Z,5.54
2018-01-27T06:16:44.376Z,5.56
2018-01-27T06:17:44.296Z,5.41
2018-01-27T06:18:44.216Z,5.52
2018-01-27T06:19:44.136Z,5.41
2018-01-27T06:20:44.055Z,5.45
2018-01-27T06:21:43.976Z,5.47
2018-01-27T06:22:43.896Z,5.50
2018-01-27T06:23:43.815Z,5.38
2018-01-27T06:24:43.735Z,5.52
2018-01-27T06:25:43.656Z,5.45
2018-01-27T06:26:43.576Z,5.39
2018-01-27T06:27:43.496Z,5.45
2018-01-27T06:28:43.416Z,5.57
2018-01-27T06:29:43.335Z,5.52
2018-01-27T06:30:43.256Z,5.54
2018-01-27T06:31:43.176Z,5.54
2018-01-27T06:32:43.095Z,5.53
2018-01-27T06:33:43.016Z,5.50
2018-01-27T06:34:42.935Z,5.56
2018-01-27T06:35:42.855Z,5.56
2018-01-27T06:36:42.776Z,5.56
2018-01-27T06:37:42.697Z,5.56
2018-01-27T06:38:42.617Z,5.38
2018-01-27T06:39:42.537Z,5.49
2018-01-27T06:40:42.457Z,5.49
2018-01-27T06:41:42.375Z,5.53
2018-01-27T06:42:42.296Z,5.39
2018-01-27T06:43:42.217Z,5.38
2018-01-27T06:44:42.136Z,5.47
2018-01-27T06:45:42.057Z,5.50
2018-01-27T06:46:41.977Z,5.53
2018-01-27T06:47:41.898Z,5.54
2018-01-27T06:48:41.816Z,5.56
2018-01-27T06:49:41.736Z,5.59
2018-01-27T06:50:41.657Z,5.53
2018-01-27T06:51:41.577Z,5.50
2018-01-27T06:52:41.496Z,5.60
2018-01-27T06:53:41.416Z,5.53
2018-01-27T06:54:41.336Z,5.54
2018-01-27T06:55:41.256Z,5.49
2018-01-27T06:56:41.177Z,5.52
2018-01-27T06:57:41.096Z,5.36
2018-01-27T06:58:41.016Z,5.39
2018-01-27T06:59:40.937Z,5.39
2018-01-27T07:00:40.856Z,5.38
2018-01-27T07:01:40.776Z,5.38
2018-01-27T07:02:40.696Z,5.31
2018-01-27T07:03:40.617Z,5.41
2018-01-27T07:04:40.536Z,5.36
2018-01-27T07:05:40.459Z,5.41
2018-01-27T07:06:40.376Z,5.39
2018-01-27T07:07:40.296Z,5.34
2018-01-27T07:08:40.216Z,5.38
2018-01-27T07:09:40.136Z,5.44
2018-01-27T07:10:40.057Z,5.52
2018-01-27T07:11:39.976Z,5.49
2018-01-27T07:12:39.897Z,5.44
2018-01-27T07:13:39.816Z,5.45
2018-01-27T07:14:39.736Z,5.41
2018-01-27T07:15:39.657Z,5.23
2018-01-27T07:16:39.582Z,5.29
2018-01-27T07:17:39.495Z,5.24
2018-01-27T07:18:39.416Z,5.28
2018-01-27T07:19:39.336Z,5.34
2018-01-27T07:20:39.255Z,5.23
2018-01-27T07:21:39.174Z,5.20
2018-01-27T07:22:39.095Z,5.18
2018-01-27T07:23:39.015Z,5.17
2018-01-27T07:24:38.934Z,5.17
2018-01-27T07:25:38.852Z,5.10
2018-01-27T07:26:38.774Z,5.05
2018-01-27T07:27:38.694Z,5.00
2018-01-27T07:28:38.612Z,5.02
2018-01-27T07:29:38.535Z,5.08
2018-01-27T07:30:38.452Z,5.05
2018-01-27T07:31:38.373Z,5.08
2018-01-27T07:32:38.291Z,5.03
2018-01-27T07:33:38.214Z,4.88
2018-01-27T07:34:38.130Z,4.92
2018-01-27T07:35:38.053Z,4.98
2018-01-27T07:36:37.969Z,4.83
2018-01-27T07:37:37.888Z,4.87
2018-01-27T07:38:37.808Z,4.76
2018-01-27T07:39:37.728Z,4.74
2018-01-27T07:40:37.646Z,4.74
2018-01-27T07:41:37.565Z,4.74
2018-01-27T07:42:37.486Z,4.73
2018-01-27T07:43:37.405Z,4.65
2018-01-27T07:44:37.324Z,4.72
2018-01-27T07:45:37.244Z,4.76
2018-01-27T07:46:37.163Z,4.77
2018-01-27T07:47:37.084Z,4.80
2018-01-27T07:48:37.002Z,4.74
2018-01-27T07:49:36.926Z,4.76
2018-01-27T07:50:36.841Z,4.73
2018-01-27T07:51:36.763Z,4.77
2018-01-27T07:52:36.732Z,4.74
2018-01-27T07:53:36.599Z,4.87
2018-01-27T07:54:36.518Z,4.87
2018-01-27T07:55:36.437Z,4.87
2018-01-27T07:56:36.356Z,4.87
2018-01-27T07:57:36.276Z,4.83
2018-01-27T07:58:36.197Z,4.85
2018-01-27T07:59:36.117Z,4.84
2018-01-27T08:00:36.033Z,4.74
2018-01-27T08:01:35.953Z,4.83
2018-01-27T08:02:35.873Z,4.95
2018-01-27T08:03:35.792Z,4.84
2018-01-27T08:04:35.711Z,4.87
2018-01-27T08:05:35.635Z,4.88
2018-01-27T08:06:35.549Z,4.91
2018-01-27T08:07:35.469Z,4.91
2018-01-27T08:08:35.388Z,4.92
2018-01-27T08:09:35.308Z,5.00
2018-01-27T08:10:35.228Z,5.00
2018-01-27T08:11:35.147Z,4.92
2018-01-27T08:12:35.066Z,4.91
2018-01-27T08:13:34.985Z,4.87
2018-01-27T08:14:34.905Z,4.83
2018-01-27T08:15:34.825Z,5.00
2018-01-27T08:16:34.744Z,5.13
2018-01-27T08:17:34.663Z,5.03
2018-01-27T08:18:34.587Z,5.18
2018-01-27T08:19:34.503Z,5.21
2018-01-27T08:20:34.422Z,5.14
2018-01-27T08:21:34.342Z,5.21
2018-01-27T08:22:34.262Z,5.17
2018-01-27T08:23:34.181Z,5.17
2018-01-27T08:24:34.101Z,5.14
2018-01-27T08:25:34.020Z,4.98
2018-01-27T08:26:33.941Z,4.92
2018-01-27T08:27:33.860Z,4.76
2018-01-27T08:28:33.779Z,4.76
2018-01-27T08:29:33.699Z,4.80
2018-01-27T08:30:33.619Z,4.79
2018-01-27T08:31:33.539Z,4.79
2018-01-27T08:32:33.458Z,4.85
2018-01-27T08:33:33.378Z,4.87
2018-01-27T08:34:33.297Z,5.02
2018-01-27T08:35:33.216Z,4.91
2018-01-27T08:36:33.136Z,4.92
2018-01-27T08:37:33.060Z,4.92
2018-01-27T08:38:33.024Z,4.87
2018-01-27T08:39:32.895Z,4.93
2018-01-27T08:40:32.815Z,4.95
2018-01-27T08:41:32.733Z,5.11
2018-01-27T08:42:32.654Z,5.17
2018-01-27T08:43:32.574Z,5.17
2018-01-27T08:44:32.493Z,5.24
2018-01-27T08:45:32.413Z,5.17
2018-01-27T08:46:32.333Z,5.31
2018-01-27T08:47:32.253Z,5.32
2018-01-27T08:48:32.172Z,5.29
2018-01-27T08:49:32.092Z,5.28
2018-01-27T08:50:32.013Z,5.29
2018-01-27T08:51:31.933Z,5.31
2018-01-27T08:52:31.852Z,5.26
2018-01-27T08:53:31.772Z,5.28
2018-01-27T08:54:31.692Z,5.32
2018-01-27T08:55:31.617Z,5.36
2018-01-27T08:56:31.532Z,5.38
2018-01-27T08:57:31.451Z,5.34
2018-01-27T08:58:31.373Z,5.47
2018-01-27T08:59:31.292Z,5.52
2018-01-27T09:00:31.212Z,5.53
2018-01-27T09:01:31.132Z,5.50
2018-01-27T09:02:31.052Z,5.59
2018-01-27T09:03:30.973Z,5.56
2018-01-27T09:04:30.892Z,5.56
2018-01-27T09:05:30.811Z,5.70
2018-01-27T09:06:30.783Z,5.50
2018-01-27T09:07:30.652Z,5.65
2018-01-27T09:08:30.574Z,5.65
2018-01-27T09:09:30.494Z,5.65
2018-01-27T09:10:30.415Z,5.59
2018-01-27T09:11:30.335Z,5.53
2018-01-27T09:12:30.254Z,5.53
2018-01-27T09:13:30.176Z,5.49
2018-01-27T09:14:30.096Z,5.63
2018-01-27T09:15:30.016Z,5.63
2018-01-27T09:16:29.936Z,5.65
2018-01-27T09:17:29.856Z,5.53
2018-01-27T09:18:29.777Z,5.59
2018-01-27T09:19:29.698Z,5.62
2018-01-27T09:20:29.617Z,5.60
2018-01-27T09:21:29.537Z,5.67
2018-01-27T09:22:29.459Z,5.68
2018-01-27T09:23:29.378Z,5.60
2018-01-27T09:24:29.298Z,5.71
2018-01-27T09:25:29.218Z,5.68
2018-01-27T09:26:29.140Z,5.68
2018-01-27T09:27:29.061Z,5.71
2018-01-27T09:28:28.980Z,5.63
2018-01-27T09:29:28.900Z,5.60
2018-01-27T09:30:28.822Z,5.75
2018-01-27T09:31:28.742Z,5.63
2018-01-27T09:32:28.661Z,5.49
2018-01-27T09:33:28.589Z,5.67
2018-01-27T09:34:28.503Z,5.74
2018-01-27T09:35:28.427Z,5.67
2018-01-27T09:36:28.342Z,5.74
2018-01-27T09:37:28.265Z,5.67
2018-01-27T09:38:28.184Z,5.50
2018-01-27T09:39:28.105Z,5.49
2018-01-27T09:40:28.025Z,5.56
2018-01-27T09:41:27.948Z,5.49
2018-01-27T09:42:27.866Z,5.52
2018-01-27T09:43:27.785Z,5.47
2018-01-27T09:44:27.706Z,5.56
2018-01-27T09:45:27.627Z,5.57
2018-01-27T09:46:27.548Z,5.52
2018-01-27T09:47:27.468Z,5.49
2018-01-27T09:48:27.388Z,5.47
2018-01-27T09:49:27.308Z,5.52
2018-01-27T09:50:27.227Z,5.65
2018-01-27T09:51:27.149Z,5.65
2018-01-27T09:52:27.068Z,5.77
2018-01-27T09:53:26.989Z,5.68
2018-01-27T09:54:26.910Z,5.70
2018-01-27T09:55:26.830Z,5.74
2018-01-27T09:56:26.750Z,5.85
2018-01-27T09:57:26.671Z,5.81
2018-01-27T09:58:26.592Z,5.85
2018-01-27T09:59:26.512Z,5.81
2018-01-27T10:00:26.433Z,5.77
2018-01-27T10:01:26.352Z,5.71
2018-01-27T10:02:26.274Z,5.86
2018-01-27T10:03:26.195Z,5.77
2018-01-27T10:04:26.114Z,5.78
2018-01-27T10:05:26.035Z,5.85
2018-01-27T10:06:25.957Z,5.80
2018-01-27T10:07:25.877Z,5.81
2018-01-27T10:08:25.799Z,5.77
2018-01-27T10:09:25.718Z,5.75
2018-01-27T10:10:25.640Z,5.63
2018-01-27T10:11:25.560Z,5.70
2018-01-27T10:12:25.486Z,5.63
2018-01-27T10:13:25.401Z,5.65
2018-01-27T10:14:25.324Z,5.63
2018-01-27T10:15:25.248Z,5.78
2018-01-27T10:16:25.161Z,5.68
2018-01-27T10:17:25.083Z,5.60
2018-01-27T10:18:25.004Z,5.54
2018-01-27T10:19:24.925Z,5.50
2018-01-27T10:20:24.844Z,5.59
2018-01-27T10:21:24.765Z,5.68
2018-01-27T10:22:24.685Z,5.53
2018-01-27T10:23:24.606Z,5.50
2018-01-27T10:24:24.526Z,5.53
2018-01-27T10:25:24.446Z,5.68
2018-01-27T10:26:24.367Z,5.75
2018-01-27T10:27:24.287Z,5.75
2018-01-27T10:28:24.206Z,5.77
2018-01-27T10:29:24.166Z,5.75
2018-01-27T10:30:24.050Z,5.80
2018-01-27T10:31:23.968Z,5.78
2018-01-27T10:32:23.888Z,5.78
2018-01-27T10:33:23.809Z,5.86
2018-01-27T10:34:23.730Z,5.63
2018-01-27T10:35:23.650Z,5.59
2018-01-27T10:36:23.570Z,5.59
2018-01-27T10:37:23.491Z,5.53
2018-01-27T10:38:23.411Z,5.59
2018-01-27T10:39:23.332Z,5.62
2018-01-27T10:40:23.251Z,5.59
2018-01-27T10:41:23.172Z,5.70
2018-01-27T10:42:23.093Z,5.77
2018-01-27T10:43:23.013Z,5.90
2018-01-27T10:44:22.939Z,5.90
2018-01-27T10:45:22.854Z,5.88
2018-01-27T10:46:22.775Z,5.88
2018-01-27T10:47:22.696Z,5.72
2018-01-27T10:48:22.615Z,5.63
2018-01-27T10:49:22.536Z,5.63
2018-01-27T10:50:22.459Z,5.53
2018-01-27T10:51:22.377Z,5.67
2018-01-27T10:52:22.296Z,5.75
2018-01-27T10:53:22.218Z,5.75
2018-01-27T10:54:22.138Z,5.60
2018-01-27T10:55:22.062Z,5.72
2018-01-27T10:56:21.988Z,5.75
2018-01-27T10:57:21.899Z,5.62
2018-01-27T10:58:21.820Z,5.80
2018-01-27T10:59:21.740Z,5.78
2018-01-27T11:00:21.660Z,5.88
2018-01-27T11:01:21.581Z,5.92
2018-01-27T11:02:21.504Z,5.90
2018-01-27T11:03:21.423Z,5.96
2018-01-27T11:04:21.343Z,6.03
2018-01-27T11:05:21.264Z,6.11
2018-01-27T11:06:21.184Z,6.11
2018-01-27T11:07:21.109Z,6.15
2018-01-27T11:08:21.026Z,6.29
2018-01-27T11:09:20.946Z,6.32
2018-01-27T11:10:20.867Z,6.07
2018-01-27T11:11:20.790Z,6.08
2018-01-27T11:12:20.709Z,6.11
2018-01-27T11:13:20.631Z,6.11
2018-01-27T11:14:20.551Z,6.07
2018-01-27T11:15:20.473Z,6.08
2018-01-27T11:16:20.392Z,6.17
2018-01-27T11:17:20.314Z,6.15
2018-01-27T11:18:20.235Z,6.22
2018-01-27T11:19:20.156Z,6.24
2018-01-27T11:20:20.075Z,6.10
2018-01-27T11:21:19.998Z,5.99
2018-01-27T11:22:19.920Z,5.89
2018-01-27T11:23:19.839Z,5.88
2018-01-27T11:24:19.760Z,5.80
2018-01-27T11:25:19.682Z,5.72
2018-01-27T11:26:19.603Z,5.77
2018-01-27T11:27:19.524Z,5.80
2018-01-27T11:28:19.444Z,5.81
2018-01-27T11:29:19.366Z,5.93
2018-01-27T11:30:19.286Z,5.92
2018-01-27T11:31:19.208Z,5.95
2018-01-27T11:32:19.128Z,5.97
2018-01-27T11:33:19.049Z,6.10
2018-01-27T11:34:18.970Z,6.15
2018-01-27T11:35:18.891Z,6.13
2018-01-27T11:36:18.813Z,6.26
2018-01-27T11:37:18.733Z,6.27
2018-01-27T11:38:18.654Z,6.34
2018-01-27T11:39:18.575Z,6.42
2018-01-27T11:40:18.496Z,6.57
2018-01-27T11:41:18.418Z,6.66
2018-01-27T11:42:18.340Z,6.70
2018-01-27T11:43:18.260Z,6.66
2018-01-27T11:44:18.185Z,6.50
2018-01-27T11:45:18.101Z,6.41
2018-01-27T11:46:18.048Z,6.33
2018-01-27T11:47:17.945Z,6.33
2018-01-27T11:48:17.866Z,6.36
2018-01-27T11:49:17.786Z,6.34
2018-01-27T11:50:17.709Z,6.30
2018-01-27T11:51:17.633Z,6.42
2018-01-27T11:52:17.552Z,6.37
2018-01-27T11:53:17.473Z,6.47
2018-01-27T11:54:17.399Z,6.48
2018-01-27T11:55:17.316Z,6.45
2018-01-27T11:56:17.236Z,6.62
2018-01-27T11:57:17.159Z,6.65
2018-01-27T11:58:17.079Z,6.69
2018-01-27T11:59:17.008Z,6.72
2018-01-27T12:00:16.922Z,6.73
2018-01-27T12:01:16.845Z,6.75
2018-01-27T12:02:16.765Z,6.69
2018-01-27T12:03:16.686Z,6.75
2018-01-27T12:04:16.639Z,6.78
2018-01-27T12:05:16.528Z,6.88
2018-01-27T12:06:16.450Z,6.91
2018-01-27T12:07:16.372Z,6.88
2018-01-27T12:08:16.296Z,6.94
2018-01-27T12:09:16.214Z,6.93
2018-01-27T12:10:16.137Z,7.03
2018-01-27T12:11:16.056Z,6.90
2018-01-27T12:12:15.980Z,6.87
2018-01-27T12:13:15.900Z,6.90
2018-01-27T12:14:15.822Z,6.84
2018-01-27T12:15:15.744Z,6.94
2018-01-27T12:16:15.664Z,6.72
2018-01-27T12:17:15.587Z,6.70
2018-01-27T12:18:15.508Z,6.83
2018-01-27T12:19:15.430Z,6.76
2018-01-27T12:20:15.351Z,6.73
2018-01-27T12:21:15.272Z,6.75
2018-01-27T12:22:15.194Z,6.75
2018-01-27T12:23:15.116Z,6.72
2018-01-27T12:24:15.037Z,6.72
2018-01-27T12:25:14.958Z,6.87
2018-01-27T12:26:14.882Z,6.91
2018-01-27T12:27:14.802Z,6.91
2018-01-27T12:28:14.723Z,6.83
2018-01-27T12:29:14.645Z,6.86
2018-01-27T12:30:14.567Z,6.88
2018-01-27T12:31:14.489Z,6.93
2018-01-27T12:32:14.409Z,7.01
2018-01-27T12:33:14.331Z,7.05
2018-01-27T12:34:14.253Z,6.98
2018-01-27T12:35:14.177Z,7.09
2018-01-27T12:36:14.097Z,7.13
2018-01-27T12:37:14.019Z,7.12
2018-01-27T12:38:13.980Z,7.12
2018-01-27T12:39:13.863Z,7.05
2018-01-27T12:40:13.784Z,6.99
2018-01-27T12:41:13.707Z,6.91
2018-01-27T12:42:13.629Z,7.01
2018-01-27T12:43:13.551Z,7.05
2018-01-27T12:44:13.475Z,7.08
2018-01-27T12:45:13.394Z,7.03
2018-01-27T12:46:13.321Z,7.11
2018-01-27T12:47:13.238Z,7.16
2018-01-27T12:48:13.160Z,7.12
2018-01-27T12:49:13.082Z,7.16
2018-01-27T12:50:13.009Z,7.16
2018-01-27T12:51:12.926Z,7.17
2018-01-27T12:52:12.848Z,7.16
2018-01-27T12:53:12.771Z,7.13
2018-01-27T12:54:12.693Z,7.24
2018-01-27T12:55:12.616Z,7.16
2018-01-27T12:56:12.537Z,7.26
2018-01-27T12:57:12.459Z,7.24
2018-01-27T12:58:12.382Z,7.27
2018-01-27T12:59:12.304Z,7.26
2018-01-27T13:00:12.257Z,7.24
2018-01-27T13:01:12.149Z,7.16
2018-01-27T13:02:12.070Z,7.06
2018-01-27T13:03:11.993Z,6.88
2018-01-27T13:04:11.914Z,6.99
2018-01-27T13:05:11.837Z,7.01
2018-01-27T13:06:11.759Z,7.03
2018-01-27T13:07:11.681Z,7.16
2018-01-27T13:08:11.604Z,7.26
2018-01-27T13:09:11.525Z,7.29
2018-01-27T13:10:11.448Z,7.34
2018-01-27T13:11:11.371Z,7.44
2018-01-27T13:12:11.291Z,7.39
2018-01-27T13:13:11.216Z,7.57
2018-01-27T13:14:11.139Z,7.70
2018-01-27T13:15:11.061Z,7.78
2018-01-27T13:16:10.982Z,7.68
2018-01-27T13:17:10.906Z,7.60